Savannah River Plant, South Carolina
Current Conditions -  °F | °C
As of 4:35 PM on Tuesday 21 Oct 2014 (Local Time) from KBNL Reporting Station
Clear Clear  
Wind Chill: 81°   Ceiling: Unl
Heat Index: 81°   Visibility: 10mi
Dew Point: 45°   Wind: 8mph
Humidity: 28%   Direction: 250°WSW
Pressure: 29.87"   Gusts: NA
Location:  33.2653°N, 81.6553°W
Report Text: KBNL 212035Z AUTO 25007KT 10SM CLR 27/07 A2987 RMK AO2
Loading
Personal Weather Stations






























Interactive Weather Map
Tropical Storm Tracking
New forecast layout! Learn more

10-Day Weather Forecast

Advertisements
Track Severe Weather on mobile